HRGA4: Little River, Horatio, AR

Data processed at Wed May 22 2019 23:50


All information presented herein is the property of the government of the United States of America and may be revised or deleted at any time without prior notice.
Dissemination of this information without the expressed written consent of the Public Affairs Office, Tulsa District U.S. Army Corps of Engineers is strictly prohibited.
These data are gathered electronically and, as presented, have not undergone any form of quality control. These data are not guaranteed to be valid or correct.
Go to home page.
Go to station list.
Go to home page.

Upstream stations:

Downstream station:
Previous Day
Next Day
Current Day
    
SHEF ID:       HRGA4     Little River near Horatio, AR
STATION TYPE:  
Regulating: Stage =    21.50, Flow =    16267

               PRECIP     STAGE  RIV-FLOW  BAT-LOAD
                   in        ft       cfs      volt
              Ccp-Rev   Ccp-Rev   Ccp-Rev   Ccp-Rev
(US/Central)
05/22 00:00      0.00     15.30      9057     12.81
05/22 01:00      0.00     15.26      9014     12.81
05/22 02:00      0.00     15.24      8992     12.81
05/22 03:00      0.00     15.21      8960     12.81
05/22 04:00      0.00     15.20      8949     12.81
05/22 05:00      0.00     15.17      8917     12.73
05/22 06:00      0.00     15.16      8906     12.73
05/22 07:00      0.00     15.15      8895     12.73
05/22 08:00      0.00     15.13      8874     12.73
05/22 09:00      0.00     15.12      8863     12.81
05/22 10:00      0.00     15.10      8841     12.97
05/22 11:00      0.00     15.08      8820     13.53
05/22 12:00      0.00     15.05      8788     13.60
05/22 13:00      0.00     15.03      8766     13.76
05/22 14:00      0.00     15.01      8745     13.53
05/22 15:00      0.00     14.96      8691     13.44
05/22 16:00      0.00     14.94      8670     13.29
05/22 17:00      0.00     14.92      8649     13.21
05/22 18:00      0.00     14.89      8617     13.21
05/22 19:00      0.00     14.85      8574     13.21
05/22 20:00      0.00     14.81      8531     13.21
05/22 21:00      0.00     14.76      8478     12.89
05/22 22:00      0.00     14.74      8457     12.89
05/22 23:00      0.00     14.74      8457     12.89